createdAt,value
2022-12-28T00:00:11.454Z,5.22
2022-12-28T00:01:11.157Z,5.24
2022-12-28T00:02:11.204Z,5.27
2022-12-28T00:03:11.201Z,5.25
2022-12-28T00:04:11.134Z,5.22
2022-12-28T00:05:11.132Z,5.22
2022-12-28T00:06:11.168Z,5.25
2022-12-28T00:07:11.076Z,5.25
2022-12-28T00:08:11.082Z,5.30
2022-12-28T00:09:11.103Z,5.28
2022-12-28T00:10:11.096Z,5.30
2022-12-28T00:11:18.655Z,5.30
2022-12-28T00:12:12.032Z,5.30
2022-12-28T00:13:11.023Z,5.31
2022-12-28T00:14:11.242Z,5.31
2022-12-28T00:15:11.011Z,5.31
2022-12-28T00:16:11.084Z,5.33
2022-12-28T00:17:11.026Z,5.35
2022-12-28T00:18:10.996Z,5.33
2022-12-28T00:19:11.005Z,5.31
2022-12-28T00:20:11.031Z,5.35
2022-12-28T00:21:10.944Z,5.33
2022-12-28T00:22:10.930Z,5.36
2022-12-28T00:23:10.926Z,5.36
2022-12-28T00:24:10.890Z,5.36
2022-12-28T00:25:10.885Z,5.38
2022-12-28T00:26:11.129Z,5.40
2022-12-28T00:27:10.932Z,5.40
2022-12-28T00:28:10.901Z,5.38
2022-12-28T00:29:10.833Z,5.40
2022-12-28T00:30:10.857Z,5.43
2022-12-28T00:31:10.915Z,5.45
2022-12-28T00:32:10.927Z,5.46
2022-12-28T00:33:10.825Z,5.40
2022-12-28T00:34:10.909Z,5.39
2022-12-28T00:35:10.797Z,5.38
2022-12-28T00:36:10.793Z,5.39
2022-12-28T00:37:13.117Z,5.36
2022-12-28T00:38:10.789Z,5.39
2022-12-28T00:39:10.732Z,5.39
2022-12-28T00:40:10.750Z,5.38
2022-12-28T00:41:10.810Z,5.36
2022-12-28T00:42:10.778Z,5.38
2022-12-28T00:43:10.768Z,5.39
2022-12-28T00:44:10.708Z,5.36
2022-12-28T00:45:10.703Z,5.40
2022-12-28T00:46:10.729Z,5.40
2022-12-28T00:47:10.704Z,5.40
2022-12-28T00:48:10.639Z,5.39
2022-12-28T00:49:11.696Z,5.42
2022-12-28T00:50:10.629Z,5.43
2022-12-28T00:51:10.681Z,5.49
2022-12-28T00:52:10.643Z,5.48
2022-12-28T00:53:10.628Z,5.49
2022-12-28T00:54:10.579Z,5.49
2022-12-28T00:55:10.594Z,5.53
2022-12-28T00:56:10.613Z,5.56
2022-12-28T00:57:10.607Z,5.56
2022-12-28T00:58:10.652Z,5.58
2022-12-28T00:59:10.580Z,5.57
2022-12-28T01:00:10.520Z,5.58
2022-12-28T01:01:10.714Z,5.60
2022-12-28T01:02:10.863Z,5.60
2022-12-28T01:03:10.583Z,5.61
2022-12-28T01:04:10.543Z,5.63
2022-12-28T01:05:10.452Z,5.61
2022-12-28T01:06:11.124Z,5.58
2022-12-28T01:07:10.481Z,5.60
2022-12-28T01:09:28.518Z,5.63
2022-12-28T01:10:28.794Z,5.63
2022-12-28T01:11:28.755Z,5.63
2022-12-28T01:12:31.944Z,5.60
2022-12-28T01:13:29.803Z,5.60
2022-12-28T01:14:28.761Z,5.61
2022-12-28T01:15:28.760Z,5.60
2022-12-28T01:16:28.790Z,5.63
2022-12-28T01:17:28.716Z,5.61
2022-12-28T01:18:28.703Z,5.63
2022-12-28T01:19:28.703Z,5.64
2022-12-28T01:20:28.780Z,5.64
2022-12-28T01:21:28.642Z,5.65
2022-12-28T01:22:28.633Z,5.65
2022-12-28T01:23:28.703Z,5.67
2022-12-28T01:24:28.625Z,5.71
2022-12-28T01:25:28.650Z,5.68
2022-12-28T01:26:28.727Z,5.72
2022-12-28T01:27:28.600Z,5.74
2022-12-28T01:28:28.573Z,5.76
2022-12-28T01:29:28.697Z,5.75
2022-12-28T01:30:28.576Z,5.75
2022-12-28T01:31:28.652Z,5.74
2022-12-28T01:32:28.644Z,5.74
2022-12-28T01:33:28.530Z,5.75
2022-12-28T01:34:28.578Z,5.74
2022-12-28T01:35:28.517Z,5.74
2022-12-28T01:36:28.523Z,5.74
2022-12-28T01:37:28.491Z,5.74
2022-12-28T01:38:28.495Z,5.74
2022-12-28T01:39:29.472Z,5.72
2022-12-28T01:40:28.517Z,5.71
2022-12-28T01:41:28.449Z,5.71
2022-12-28T01:42:28.458Z,5.71
2022-12-28T01:43:29.611Z,5.71
2022-12-28T01:44:28.425Z,5.68
2022-12-28T01:45:28.514Z,5.71
2022-12-28T01:46:28.458Z,5.67
2022-12-28T01:47:28.414Z,5.71
2022-12-28T01:48:28.376Z,5.71
2022-12-28T01:49:28.380Z,5.72
2022-12-28T01:50:28.400Z,5.65
2022-12-28T01:51:28.331Z,5.71
2022-12-28T01:52:28.348Z,5.67
2022-12-28T01:53:28.340Z,5.67
2022-12-28T01:54:28.327Z,5.64
2022-12-28T01:55:28.328Z,5.67
2022-12-28T01:56:28.295Z,5.68
2022-12-28T01:57:28.584Z,5.68
2022-12-28T01:58:28.284Z,5.68
2022-12-28T01:59:28.266Z,5.64
2022-12-28T02:00:28.304Z,5.63
2022-12-28T02:01:28.408Z,5.63
2022-12-28T02:02:28.433Z,5.61
2022-12-28T02:03:28.250Z,5.61
2022-12-28T02:04:28.335Z,5.61
2022-12-28T02:05:28.235Z,5.60
2022-12-28T02:06:28.220Z,5.58
2022-12-28T02:07:28.874Z,5.57
2022-12-28T02:08:28.263Z,5.54
2022-12-28T02:09:28.218Z,5.53
2022-12-28T02:10:44.411Z,5.49
2022-12-28T02:11:29.143Z,5.48
2022-12-28T02:12:28.189Z,5.45
2022-12-28T02:13:28.109Z,5.43
2022-12-28T02:14:28.850Z,5.39
2022-12-28T02:15:28.153Z,5.36
2022-12-28T02:16:28.161Z,5.38
2022-12-28T02:17:28.071Z,5.31
2022-12-28T02:18:28.090Z,5.33
2022-12-28T02:19:28.107Z,5.31
2022-12-28T02:20:28.079Z,5.30
2022-12-28T02:21:28.077Z,5.30
2022-12-28T02:22:28.053Z,5.31
2022-12-28T02:23:28.058Z,5.31
2022-12-28T02:24:28.025Z,5.28
2022-12-28T02:25:28.021Z,5.31
2022-12-28T02:26:27.989Z,5.30
2022-12-28T02:27:28.062Z,5.30
2022-12-28T02:28:27.975Z,5.31
2022-12-28T02:29:28.022Z,5.30
2022-12-28T02:30:28.013Z,5.31
2022-12-28T02:31:27.977Z,5.31
2022-12-28T02:32:27.974Z,5.31
2022-12-28T02:33:27.965Z,5.28
2022-12-28T02:34:28.116Z,5.27
2022-12-28T02:35:28.574Z,5.27
2022-12-28T02:36:27.874Z,5.28
2022-12-28T02:37:28.072Z,5.25
2022-12-28T02:38:27.889Z,5.28
2022-12-28T02:39:27.871Z,5.30
2022-12-28T02:40:27.876Z,5.28
2022-12-28T02:41:27.848Z,5.30
2022-12-28T02:42:27.848Z,5.30
2022-12-28T02:43:27.863Z,5.27
2022-12-28T02:44:27.813Z,5.25
2022-12-28T02:45:27.783Z,5.25
2022-12-28T02:46:29.659Z,5.25
2022-12-28T02:47:27.795Z,5.22
2022-12-28T02:48:27.758Z,5.24
2022-12-28T02:49:27.789Z,5.22
2022-12-28T02:50:27.726Z,5.22
2022-12-28T02:51:27.731Z,5.21
2022-12-28T02:52:27.763Z,5.21
2022-12-28T02:53:27.721Z,5.20
2022-12-28T02:54:27.710Z,5.18
2022-12-28T02:55:27.704Z,5.17
2022-12-28T02:56:29.424Z,5.17
2022-12-28T02:57:27.684Z,5.18
2022-12-28T02:58:27.673Z,5.15
2022-12-28T02:59:27.650Z,5.10
2022-12-28T03:00:27.633Z,5.10
2022-12-28T03:01:27.737Z,5.09
2022-12-28T03:02:27.847Z,5.09
2022-12-28T03:03:27.644Z,5.09
2022-12-28T03:04:27.622Z,5.07
2022-12-28T03:05:27.596Z,5.07
2022-12-28T03:06:30.405Z,5.07
2022-12-28T03:07:27.585Z,5.07
2022-12-28T03:08:27.576Z,5.07
2022-12-28T03:09:27.595Z,5.04
2022-12-28T03:10:27.539Z,5.03
2022-12-28T03:11:27.573Z,5.00
2022-12-28T03:12:27.504Z,5.00
2022-12-28T03:13:27.526Z,5.00
2022-12-28T03:14:27.519Z,5.00
2022-12-28T03:15:27.540Z,5.00
2022-12-28T03:16:27.544Z,5.03
2022-12-28T03:17:27.518Z,5.00
2022-12-28T03:18:27.454Z,4.99
2022-12-28T03:19:27.503Z,5.00
2022-12-28T03:20:27.478Z,5.00
2022-12-28T03:21:27.445Z,4.97
2022-12-28T03:22:28.043Z,4.97
2022-12-28T03:23:27.391Z,4.96
2022-12-28T03:24:27.392Z,4.97
2022-12-28T03:25:27.417Z,4.94
2022-12-28T03:26:27.361Z,4.94
2022-12-28T03:27:27.351Z,4.94
2022-12-28T03:28:27.361Z,4.92
2022-12-28T03:29:27.359Z,4.94
2022-12-28T03:30:27.346Z,4.92
2022-12-28T03:31:27.346Z,4.91
2022-12-28T03:32:27.340Z,4.92
2022-12-28T03:33:27.321Z,4.92
2022-12-28T03:34:27.311Z,4.91
2022-12-28T03:35:27.331Z,4.91
2022-12-28T03:36:27.277Z,4.91
2022-12-28T03:37:27.274Z,4.91
2022-12-28T03:38:27.269Z,4.89
2022-12-28T03:39:27.241Z,4.89
2022-12-28T03:40:27.221Z,4.92
2022-12-28T03:41:27.224Z,4.92
2022-12-28T03:42:27.191Z,4.89
2022-12-28T03:43:27.195Z,4.88
2022-12-28T03:44:27.283Z,4.89
2022-12-28T03:45:46.546Z,4.91
2022-12-28T03:46:28.188Z,4.88
2022-12-28T03:47:27.173Z,4.88
2022-12-28T03:48:27.153Z,4.86
2022-12-28T03:49:27.184Z,4.86
2022-12-28T03:50:27.159Z,4.85
2022-12-28T03:51:27.159Z,4.84
2022-12-28T03:52:27.119Z,4.84
2022-12-28T03:53:27.089Z,4.85
2022-12-28T03:54:27.089Z,4.85
2022-12-28T03:55:27.072Z,4.86
2022-12-28T03:56:27.131Z,4.86
2022-12-28T03:57:27.074Z,4.85
2022-12-28T03:58:27.064Z,4.84
2022-12-28T03:59:27.048Z,4.85
2022-12-28T04:00:27.053Z,4.84
2022-12-28T04:01:27.163Z,4.82
2022-12-28T04:02:27.170Z,4.82
2022-12-28T04:03:27.067Z,4.80
2022-12-28T04:04:26.988Z,4.78
2022-12-28T04:05:27.005Z,4.80
2022-12-28T04:06:27.024Z,4.80
2022-12-28T04:07:26.937Z,4.78
2022-12-28T04:08:26.949Z,4.77
2022-12-28T04:09:26.939Z,4.75
2022-12-28T04:10:26.969Z,4.77
2022-12-28T04:11:26.905Z,4.77
2022-12-28T04:12:26.936Z,4.78
2022-12-28T04:13:26.890Z,4.80
2022-12-28T04:14:26.902Z,4.78
2022-12-28T04:15:26.892Z,4.80
2022-12-28T04:16:26.874Z,4.78
2022-12-28T04:17:26.847Z,4.78
2022-12-28T04:18:26.845Z,4.77
2022-12-28T04:19:26.860Z,4.73
2022-12-28T04:20:26.835Z,4.73
2022-12-28T04:21:26.824Z,4.72
2022-12-28T04:22:26.853Z,4.70
2022-12-28T04:23:26.778Z,4.70
2022-12-28T04:24:26.780Z,4.70
2022-12-28T04:25:34.020Z,4.67
2022-12-28T04:26:27.562Z,4.67
2022-12-28T04:27:31.678Z,4.69
2022-12-28T04:28:26.741Z,4.69
2022-12-28T04:29:26.741Z,4.70
2022-12-28T04:30:26.758Z,4.70
2022-12-28T04:31:26.760Z,4.72
2022-12-28T04:32:26.707Z,4.73
2022-12-28T04:33:26.730Z,4.67
2022-12-28T04:34:26.692Z,4.67
2022-12-28T04:35:26.675Z,4.70
2022-12-28T04:36:26.656Z,4.69
2022-12-28T04:37:27.686Z,4.70
2022-12-28T04:38:26.662Z,4.72
2022-12-28T04:39:26.628Z,4.70
2022-12-28T04:40:26.596Z,4.70
2022-12-28T04:41:26.636Z,4.72
2022-12-28T04:42:26.594Z,4.72
2022-12-28T04:43:26.578Z,4.70
2022-12-28T04:44:26.575Z,4.70
2022-12-28T04:45:26.585Z,4.72
2022-12-28T04:46:26.594Z,4.70
2022-12-28T04:47:26.574Z,4.72
2022-12-28T04:48:26.531Z,4.70
2022-12-28T04:49:26.570Z,4.67
2022-12-28T04:50:26.558Z,4.69
2022-12-28T04:51:26.515Z,4.67
2022-12-28T04:52:26.538Z,4.69
2022-12-28T04:53:26.555Z,4.70
2022-12-28T04:54:26.497Z,4.72
2022-12-28T04:55:32.338Z,4.75
2022-12-28T04:56:27.492Z,4.75
2022-12-28T04:57:26.436Z,4.77
2022-12-28T04:58:26.425Z,4.77
2022-12-28T04:59:26.440Z,4.77
2022-12-28T05:00:26.455Z,4.78
2022-12-28T05:01:26.606Z,4.80
2022-12-28T05:02:26.540Z,4.78
2022-12-28T05:03:26.389Z,4.80
2022-12-28T05:04:26.371Z,4.82
2022-12-28T05:05:26.369Z,4.84
2022-12-28T05:06:26.357Z,4.82
2022-12-28T05:07:26.403Z,4.82
2022-12-28T05:08:26.335Z,4.80
2022-12-28T05:09:26.358Z,4.78
2022-12-28T05:10:26.331Z,4.80
2022-12-28T05:11:26.319Z,4.75
2022-12-28T05:12:26.307Z,4.77
2022-12-28T05:13:26.282Z,4.77
2022-12-28T05:14:26.273Z,4.77
2022-12-28T05:15:26.276Z,4.78
2022-12-28T05:16:26.376Z,4.78
2022-12-28T05:17:26.248Z,4.77
2022-12-28T05:18:26.255Z,4.78
2022-12-28T05:19:26.216Z,4.80
2022-12-28T05:20:26.201Z,4.80
2022-12-28T05:21:26.252Z,4.82
2022-12-28T05:22:26.225Z,4.84
2022-12-28T05:23:26.186Z,4.86
2022-12-28T05:24:26.168Z,4.88
2022-12-28T05:25:26.159Z,4.85
2022-12-28T05:26:26.202Z,4.85
2022-12-28T05:27:26.167Z,4.86
2022-12-28T05:28:26.154Z,4.88
2022-12-28T05:29:26.151Z,4.89
2022-12-28T05:30:26.149Z,4.89
2022-12-28T05:31:26.169Z,4.89
2022-12-28T05:32:26.117Z,4.89
2022-12-28T05:33:26.124Z,4.89
2022-12-28T05:34:26.106Z,4.91
2022-12-28T05:35:26.063Z,4.92
2022-12-28T05:36:26.064Z,4.92
2022-12-28T05:37:26.065Z,4.92
2022-12-28T05:38:26.042Z,4.92
2022-12-28T05:39:26.042Z,4.96
2022-12-28T05:40:26.027Z,4.97
2022-12-28T05:41:26.002Z,4.92
2022-12-28T05:42:26.021Z,4.94
2022-12-28T05:43:25.971Z,4.91
2022-12-28T05:44:25.969Z,4.91
2022-12-28T05:45:25.973Z,4.91
2022-12-28T05:46:25.992Z,4.88
2022-12-28T05:47:25.931Z,4.89
2022-12-28T05:48:25.945Z,4.91
2022-12-28T05:49:25.931Z,4.91
2022-12-28T05:50:25.895Z,4.94
2022-12-28T05:51:25.916Z,4.91
2022-12-28T05:52:25.893Z,4.94
2022-12-28T05:53:25.887Z,4.92
2022-12-28T05:54:25.894Z,4.97
2022-12-28T05:55:25.834Z,4.94
2022-12-28T05:56:25.861Z,4.96
2022-12-28T05:57:25.872Z,4.94
2022-12-28T05:58:25.864Z,4.97
2022-12-28T05:59:25.844Z,4.99
2022-12-28T06:00:25.814Z,4.99
2022-12-28T06:01:25.934Z,5.00
2022-12-28T06:02:25.852Z,5.03
2022-12-28T06:03:25.927Z,5.06
2022-12-28T06:04:25.773Z,5.06
2022-12-28T06:05:25.759Z,5.09
2022-12-28T06:06:25.794Z,5.06
2022-12-28T06:07:25.721Z,5.07
2022-12-28T06:08:25.733Z,5.07
2022-12-28T06:09:25.702Z,5.04
2022-12-28T06:10:25.682Z,5.04
2022-12-28T06:11:25.695Z,5.03
2022-12-28T06:12:25.694Z,5.02
2022-12-28T06:13:25.675Z,5.03
2022-12-28T06:14:25.639Z,5.00
2022-12-28T06:15:25.656Z,5.02
2022-12-28T06:16:25.729Z,5.03
2022-12-28T06:17:25.636Z,5.04
2022-12-28T06:18:25.686Z,5.09
2022-12-28T06:19:25.649Z,5.04
2022-12-28T06:20:25.605Z,5.03
2022-12-28T06:21:25.605Z,5.03
2022-12-28T06:22:25.600Z,5.04
2022-12-28T06:23:25.611Z,5.04
2022-12-28T06:24:25.554Z,5.07
2022-12-28T06:25:25.587Z,5.09
2022-12-28T06:26:25.563Z,5.12
2022-12-28T06:27:25.566Z,5.12
2022-12-28T06:28:25.513Z,5.13
2022-12-28T06:29:25.502Z,5.13
2022-12-28T06:30:25.498Z,5.13
2022-12-28T06:31:25.541Z,5.15
2022-12-28T06:32:25.426Z,5.15
2022-12-28T06:33:25.488Z,5.17
2022-12-28T06:34:25.471Z,5.18
2022-12-28T06:35:25.461Z,5.20
2022-12-28T06:36:25.419Z,5.20
2022-12-28T06:37:25.421Z,5.21
2022-12-28T06:38:25.448Z,5.22
2022-12-28T06:39:25.562Z,5.25
2022-12-28T06:40:33.455Z,5.27
2022-12-28T06:41:26.394Z,5.27
2022-12-28T06:42:25.403Z,5.30
2022-12-28T06:43:25.433Z,5.31
2022-12-28T06:44:25.361Z,5.30
2022-12-28T06:45:25.348Z,5.30
2022-12-28T06:46:25.288Z,5.33
2022-12-28T06:47:25.316Z,5.31
2022-12-28T06:48:25.289Z,5.33
2022-12-28T06:49:25.256Z,5.33
2022-12-28T06:50:25.273Z,5.36
2022-12-28T06:51:25.273Z,5.35
2022-12-28T06:52:25.241Z,5.35
2022-12-28T06:53:25.232Z,5.30
2022-12-28T06:54:25.231Z,5.30
2022-12-28T06:55:25.212Z,5.33
2022-12-28T06:56:25.208Z,5.31
2022-12-28T06:57:25.224Z,5.30
2022-12-28T06:58:25.172Z,5.30
2022-12-28T06:59:25.154Z,5.30
2022-12-28T07:00:25.169Z,5.30
2022-12-28T07:01:25.262Z,5.28
2022-12-28T07:02:25.210Z,5.28
2022-12-28T07:03:25.156Z,5.27
2022-12-28T07:04:25.098Z,5.28
2022-12-28T07:05:25.117Z,5.27
2022-12-28T07:06:25.106Z,5.28
2022-12-28T07:07:25.100Z,5.33
2022-12-28T07:08:25.082Z,5.30
2022-12-28T07:09:25.083Z,5.31
2022-12-28T07:10:25.046Z,5.35
2022-12-28T07:11:25.039Z,5.35
2022-12-28T07:12:25.061Z,5.35
2022-12-28T07:13:28.360Z,5.33
2022-12-28T07:14:25.021Z,5.33
2022-12-28T07:15:25.019Z,5.31
2022-12-28T07:16:25.015Z,5.33
2022-12-28T07:17:24.977Z,5.33
2022-12-28T07:18:24.991Z,5.30
2022-12-28T07:19:24.935Z,5.30
2022-12-28T07:20:24.931Z,5.27
2022-12-28T07:21:24.933Z,5.27
2022-12-28T07:22:24.975Z,5.27
2022-12-28T07:23:24.915Z,5.28
2022-12-28T07:24:24.886Z,5.27
2022-12-28T07:25:24.880Z,5.27
2022-12-28T07:26:24.905Z,5.27
2022-12-28T07:27:24.907Z,5.21
2022-12-28T07:28:24.873Z,5.21
2022-12-28T07:29:25.061Z,5.22
2022-12-28T07:30:24.834Z,5.24
2022-12-28T07:31:24.843Z,5.27
2022-12-28T07:32:24.869Z,5.25
2022-12-28T07:33:24.815Z,5.28
2022-12-28T07:34:24.827Z,5.28
2022-12-28T07:35:24.785Z,5.30
2022-12-28T07:36:24.764Z,5.33
2022-12-28T07:37:24.809Z,5.35
2022-12-28T07:38:24.793Z,5.39
2022-12-28T07:39:24.740Z,5.40
2022-12-28T07:40:24.731Z,5.43
2022-12-28T07:41:24.696Z,5.45
2022-12-28T07:42:24.718Z,5.45
2022-12-28T07:43:24.718Z,5.46
2022-12-28T07:44:29.443Z,5.48
2022-12-28T07:45:25.737Z,5.46
2022-12-28T07:46:24.746Z,5.48
2022-12-28T07:47:24.716Z,5.53
2022-12-28T07:48:24.650Z,5.54
2022-12-28T07:49:24.675Z,5.56
2022-12-28T07:50:24.718Z,5.56
2022-12-28T07:51:24.665Z,5.57
2022-12-28T07:52:24.649Z,5.60
2022-12-28T07:53:24.587Z,5.60
2022-12-28T07:54:24.605Z,5.60
2022-12-28T07:55:24.585Z,5.63
2022-12-28T07:56:24.588Z,5.63
2022-12-28T07:57:24.574Z,5.64
2022-12-28T07:58:24.551Z,5.64
2022-12-28T07:59:30.620Z,5.60
2022-12-28T08:00:25.553Z,5.57
2022-12-28T08:01:24.736Z,5.58
2022-12-28T08:02:24.641Z,5.60
2022-12-28T08:03:24.533Z,5.58
2022-12-28T08:04:24.526Z,5.60
2022-12-28T08:05:24.479Z,5.60
2022-12-28T08:06:24.465Z,5.63
2022-12-28T08:07:24.459Z,5.60
2022-12-28T08:08:24.507Z,5.64
2022-12-28T08:09:24.466Z,5.64
2022-12-28T08:10:24.454Z,5.64
2022-12-28T08:11:24.429Z,5.64
2022-12-28T08:12:24.443Z,5.64
2022-12-28T08:13:24.387Z,5.65
2022-12-28T08:14:24.390Z,5.67
2022-12-28T08:15:24.395Z,5.67
2022-12-28T08:16:24.415Z,5.65
2022-12-28T08:17:24.406Z,5.65
2022-12-28T08:18:24.381Z,5.67
2022-12-28T08:19:24.329Z,5.67
2022-12-28T08:20:24.402Z,5.71
2022-12-28T08:21:24.324Z,5.72
2022-12-28T08:22:24.359Z,5.72
2022-12-28T08:23:24.287Z,5.75
2022-12-28T08:24:24.344Z,5.76
2022-12-28T08:25:24.278Z,5.76
2022-12-28T08:26:24.290Z,5.81
2022-12-28T08:27:24.245Z,5.83
2022-12-28T08:28:24.250Z,5.86
2022-12-28T08:29:24.236Z,5.86
2022-12-28T08:30:24.241Z,5.90
2022-12-28T08:31:24.279Z,5.90
2022-12-28T08:32:24.235Z,5.91
2022-12-28T08:33:24.234Z,5.93
2022-12-28T08:34:24.180Z,5.97
2022-12-28T08:35:24.175Z,5.99
2022-12-28T08:36:24.265Z,6.01
2022-12-28T08:37:24.166Z,6.03
2022-12-28T08:38:24.166Z,6.00
2022-12-28T08:39:24.139Z,6.01
2022-12-28T08:40:24.113Z,6.03
2022-12-28T08:41:24.164Z,6.04
2022-12-28T08:42:24.120Z,6.06
2022-12-28T08:43:24.111Z,6.11
2022-12-28T08:44:24.107Z,6.11
2022-12-28T08:45:24.098Z,6.14
2022-12-28T08:46:24.138Z,6.15
2022-12-28T08:47:24.079Z,6.14
2022-12-28T08:48:24.043Z,6.14
2022-12-28T08:49:24.083Z,6.19
2022-12-28T08:50:31.192Z,6.21
2022-12-28T08:51:25.047Z,6.27
2022-12-28T08:52:24.018Z,6.30
2022-12-28T08:53:24.041Z,6.33
2022-12-28T08:54:23.969Z,6.36
2022-12-28T08:55:23.984Z,6.36
2022-12-28T08:56:23.995Z,6.33
2022-12-28T08:57:23.951Z,6.34
2022-12-28T08:58:23.957Z,6.36
2022-12-28T08:59:23.976Z,6.36
2022-12-28T09:00:23.976Z,6.38
2022-12-28T09:01:24.024Z,6.38
2022-12-28T09:02:24.070Z,6.41
2022-12-28T09:03:23.964Z,6.44
2022-12-28T09:04:23.874Z,6.44
2022-12-28T09:05:23.920Z,6.43
2022-12-28T09:06:23.863Z,6.43
2022-12-28T09:07:23.837Z,6.46
2022-12-28T09:08:23.870Z,6.46
2022-12-28T09:09:23.846Z,6.46
2022-12-28T09:10:23.826Z,6.44
2022-12-28T09:11:23.875Z,6.43
2022-12-28T09:12:23.793Z,6.41
2022-12-28T09:13:23.826Z,6.44
2022-12-28T09:14:24.727Z,6.46
2022-12-28T09:15:23.792Z,6.48
2022-12-28T09:16:23.865Z,6.46
2022-12-28T09:17:23.807Z,6.48
2022-12-28T09:18:23.734Z,6.51
2022-12-28T09:19:23.801Z,6.52
2022-12-28T09:20:23.718Z,6.54
2022-12-28T09:21:23.705Z,6.55
2022-12-28T09:22:23.689Z,6.55
2022-12-28T09:23:23.819Z,6.54
2022-12-28T09:24:23.684Z,6.52
2022-12-28T09:25:23.684Z,6.54
2022-12-28T09:26:23.667Z,6.49
2022-12-28T09:27:23.659Z,6.52
2022-12-28T09:28:23.622Z,6.52
2022-12-28T09:29:23.659Z,6.55
2022-12-28T09:30:23.634Z,6.58
2022-12-28T09:31:23.694Z,6.59
2022-12-28T09:32:23.619Z,6.58
2022-12-28T09:33:23.645Z,6.59
2022-12-28T09:34:35.441Z,6.59
2022-12-28T09:35:24.556Z,6.62
2022-12-28T09:36:23.555Z,6.62
2022-12-28T09:37:23.561Z,6.64
2022-12-28T09:38:23.571Z,6.66
2022-12-28T09:39:23.562Z,6.66
2022-12-28T09:40:23.566Z,6.69
2022-12-28T09:41:23.535Z,6.69
2022-12-28T09:42:23.502Z,6.71
2022-12-28T09:43:23.476Z,6.70
2022-12-28T09:44:23.606Z,6.76
2022-12-28T09:45:23.495Z,6.74
2022-12-28T09:46:23.564Z,6.73
2022-12-28T09:47:23.437Z,6.76
2022-12-28T09:48:23.429Z,6.77
2022-12-28T09:49:23.517Z,6.79
2022-12-28T09:50:23.430Z,6.80
2022-12-28T09:51:23.409Z,6.84
2022-12-28T09:52:23.401Z,6.81
2022-12-28T09:53:23.406Z,6.84
2022-12-28T09:54:23.400Z,6.88
2022-12-28T09:55:23.473Z,6.88
2022-12-28T09:56:23.369Z,6.92
2022-12-28T09:57:23.389Z,6.97
2022-12-28T09:58:23.409Z,6.97
2022-12-28T09:59:23.404Z,6.99
2022-12-28T10:00:23.431Z,6.99
2022-12-28T10:01:23.403Z,6.98
2022-12-28T10:02:23.458Z,6.99
2022-12-28T10:03:23.424Z,7.05
2022-12-28T10:04:23.283Z,7.06
2022-12-28T10:05:23.240Z,7.07
2022-12-28T10:06:23.263Z,7.10
2022-12-28T10:07:23.315Z,7.12
2022-12-28T10:08:23.267Z,7.13
2022-12-28T10:09:23.249Z,7.10
2022-12-28T10:10:23.216Z,7.12
2022-12-28T10:11:23.202Z,7.10
2022-12-28T10:12:23.220Z,7.13
2022-12-28T10:13:54.015Z,7.15
2022-12-28T10:14:24.195Z,7.17
2022-12-28T10:15:23.194Z,7.21
2022-12-28T10:16:23.291Z,7.21
2022-12-28T10:17:23.140Z,7.20
2022-12-28T10:18:23.140Z,7.17
2022-12-28T10:19:23.093Z,7.17
2022-12-28T10:20:23.155Z,7.17
2022-12-28T10:21:28.417Z,7.23
2022-12-28T10:22:24.093Z,7.20
2022-12-28T10:23:23.080Z,7.21
2022-12-28T10:24:32.158Z,7.24
2022-12-28T10:25:24.055Z,7.27
2022-12-28T10:26:23.051Z,7.31
2022-12-28T10:27:23.041Z,7.34
2022-12-28T10:28:23.051Z,7.37
2022-12-28T10:29:23.006Z,7.40
2022-12-28T10:30:23.002Z,7.42
2022-12-28T10:31:23.146Z,7.40
2022-12-28T10:32:23.208Z,7.39
2022-12-28T10:33:22.987Z,7.42
2022-12-28T10:34:22.998Z,7.46
2022-12-28T10:35:22.976Z,7.46
2022-12-28T10:36:26.852Z,7.48
2022-12-28T10:37:23.977Z,7.46
2022-12-28T10:38:22.919Z,7.48
2022-12-28T10:39:22.907Z,7.46
2022-12-28T10:40:22.890Z,7.45
2022-12-28T10:41:22.937Z,7.43
2022-12-28T10:42:22.885Z,7.45
2022-12-28T10:43:22.883Z,7.43
2022-12-28T10:44:39.219Z,7.48
2022-12-28T10:45:23.851Z,7.46
2022-12-28T10:46:22.966Z,7.49
2022-12-28T10:47:22.959Z,7.50
2022-12-28T10:48:22.852Z,7.49
2022-12-28T10:49:22.841Z,7.49
2022-12-28T10:50:38.374Z,7.49
2022-12-28T10:51:23.784Z,7.46
2022-12-28T10:52:22.794Z,7.43
2022-12-28T10:53:22.782Z,7.46
2022-12-28T10:54:28.230Z,7.48
2022-12-28T10:55:23.761Z,7.48
2022-12-28T10:56:22.790Z,7.49
2022-12-28T10:57:22.753Z,7.49
2022-12-28T10:58:31.872Z,7.48
2022-12-28T10:59:23.799Z,7.48
2022-12-28T11:00:22.728Z,7.50
2022-12-28T11:01:22.859Z,7.52
2022-12-28T11:02:32.570Z,7.52
2022-12-28T11:03:22.698Z,7.55
2022-12-28T11:04:23.392Z,7.58
2022-12-28T11:05:22.798Z,7.64
2022-12-28T11:06:27.146Z,7.68
2022-12-28T11:07:23.714Z,7.74
2022-12-28T11:08:22.621Z,7.79
2022-12-28T11:09:22.651Z,7.79
2022-12-28T11:10:22.618Z,7.75
2022-12-28T11:11:22.571Z,7.82
2022-12-28T11:12:22.611Z,7.83
2022-12-28T11:13:22.613Z,7.82
2022-12-28T11:14:22.569Z,7.82
2022-12-28T11:15:22.535Z,7.82
2022-12-28T11:16:22.593Z,7.82
2022-12-28T11:17:22.540Z,7.82
2022-12-28T11:18:22.558Z,7.86
2022-12-28T11:19:22.524Z,7.86
2022-12-28T11:20:22.526Z,7.87
2022-12-28T11:21:22.468Z,7.89
2022-12-28T11:22:22.493Z,7.89
2022-12-28T11:23:22.578Z,7.87
2022-12-28T11:24:22.478Z,7.89
2022-12-28T11:25:22.492Z,7.87
2022-12-28T11:26:23.420Z,7.89
2022-12-28T11:27:22.436Z,7.92
2022-12-28T11:28:22.562Z,7.93
2022-12-28T11:29:22.441Z,7.93
2022-12-28T11:30:22.446Z,7.95
2022-12-28T11:31:22.411Z,8.00
2022-12-28T11:32:22.381Z,7.97
2022-12-28T11:33:22.377Z,7.97
2022-12-28T11:34:22.372Z,7.95
2022-12-28T11:35:22.352Z,7.97
2022-12-28T11:36:22.356Z,7.98
2022-12-28T11:37:22.332Z,8.00
2022-12-28T11:38:22.390Z,8.04
2022-12-28T11:39:22.360Z,8.01
2022-12-28T11:40:22.338Z,8.04
2022-12-28T11:41:22.307Z,8.07
2022-12-28T11:42:39.105Z,8.08
2022-12-28T11:43:23.458Z,8.11
2022-12-28T11:44:22.292Z,8.11
2022-12-28T11:45:22.272Z,8.12
2022-12-28T11:46:22.324Z,8.16
2022-12-28T11:47:27.961Z,8.19
2022-12-28T11:48:23.248Z,8.19
2022-12-28T11:49:22.233Z,8.23
2022-12-28T11:50:22.264Z,8.19
2022-12-28T11:51:22.187Z,8.20
2022-12-28T11:52:22.204Z,8.19
2022-12-28T11:53:22.181Z,8.22
2022-12-28T11:54:22.287Z,8.20
2022-12-28T11:55:22.161Z,8.25
2022-12-28T11:56:22.165Z,8.20
2022-12-28T11:57:22.159Z,8.22
2022-12-28T11:58:22.129Z,8.23
2022-12-28T11:59:22.134Z,8.30
2022-12-28T12:00:23.465Z,8.28
2022-12-28T12:01:22.179Z,8.28
2022-12-28T12:02:22.136Z,8.29
2022-12-28T12:03:22.103Z,8.29
2022-12-28T12:04:22.093Z,8.30
2022-12-28T12:05:22.069Z,8.30
2022-12-28T12:06:26.770Z,8.37
2022-12-28T12:07:29.043Z,8.37
2022-12-28T12:08:23.008Z,8.38
2022-12-28T12:09:22.032Z,8.37
2022-12-28T12:10:21.992Z,8.40
2022-12-28T12:11:22.006Z,8.43
2022-12-28T12:12:21.978Z,8.44
2022-12-28T12:13:21.988Z,8.45
2022-12-28T12:14:21.971Z,8.52
2022-12-28T12:15:21.943Z,8.53
2022-12-28T12:16:21.987Z,8.56
2022-12-28T12:17:21.943Z,8.58
2022-12-28T12:18:21.959Z,8.58
2022-12-28T12:19:21.970Z,8.62
2022-12-28T12:20:21.905Z,8.61
2022-12-28T12:21:21.932Z,8.61
2022-12-28T12:22:21.884Z,8.59
2022-12-28T12:23:21.870Z,8.61
2022-12-28T12:24:21.870Z,8.59
2022-12-28T12:25:21.887Z,8.59
2022-12-28T12:26:21.992Z,8.62
2022-12-28T12:27:22.072Z,8.62
2022-12-28T12:28:21.813Z,8.63
2022-12-28T12:29:21.871Z,8.65
2022-12-28T12:30:21.795Z,8.66
2022-12-28T12:31:21.960Z,8.70
2022-12-28T12:32:21.783Z,8.77
2022-12-28T12:33:21.764Z,8.79
2022-12-28T12:34:21.747Z,8.81
2022-12-28T12:35:21.763Z,8.87
2022-12-28T12:36:21.752Z,8.89
2022-12-28T12:37:21.712Z,8.87
2022-12-28T12:38:21.724Z,8.99
2022-12-28T12:39:21.711Z,8.99
2022-12-28T12:40:21.709Z,9.05
2022-12-28T12:41:21.688Z,9.02
2022-12-28T12:42:21.792Z,9.05
2022-12-28T12:43:21.670Z,9.02
2022-12-28T12:44:21.687Z,9.01
2022-12-28T12:45:21.628Z,8.96
2022-12-28T12:46:21.723Z,8.92
2022-12-28T12:47:21.626Z,8.95
2022-12-28T12:48:21.632Z,8.91
2022-12-28T12:49:21.619Z,8.96
2022-12-28T12:50:21.615Z,8.96
2022-12-28T12:51:21.585Z,8.95
2022-12-28T12:52:22.106Z,8.96
2022-12-28T12:53:21.609Z,8.95
2022-12-28T12:54:21.586Z,8.98
2022-12-28T12:55:21.577Z,8.96
2022-12-28T12:56:21.564Z,9.01
2022-12-28T12:57:21.498Z,9.08
2022-12-28T12:58:21.507Z,9.08
2022-12-28T12:59:21.568Z,9.11
2022-12-28T13:00:21.510Z,9.14
2022-12-28T13:01:21.552Z,9.21
2022-12-28T13:02:21.620Z,9.23
2022-12-28T13:03:21.526Z,9.32
2022-12-28T13:04:21.474Z,9.36
2022-12-28T13:05:21.452Z,9.40
2022-12-28T13:06:21.481Z,9.39
2022-12-28T13:07:21.418Z,9.33
2022-12-28T13:08:21.442Z,9.39
2022-12-28T13:09:21.401Z,9.39
2022-12-28T13:10:21.395Z,9.47
2022-12-28T13:11:21.361Z,9.48
2022-12-28T13:12:21.369Z,9.46
2022-12-28T13:13:21.364Z,9.50
2022-12-28T13:14:21.391Z,9.53
2022-12-28T13:15:21.338Z,9.56
2022-12-28T13:16:21.389Z,9.53
2022-12-28T13:17:21.319Z,9.56
2022-12-28T13:19:22.306Z,9.57
2022-12-28T13:20:21.299Z,9.57